createdAt,value
2019-04-28T00:04:11.604Z,97249.99
2019-04-28T00:09:08.742Z,97255.20
2019-04-28T00:14:03.426Z,97243.37
2019-04-28T00:18:58.008Z,97243.44
2019-04-28T00:24:03.037Z,97235.00
2019-04-28T00:28:57.605Z,97234.17
2019-04-28T00:33:52.200Z,97235.86
2019-04-28T00:38:46.856Z,97241.89
2019-04-28T00:43:41.848Z,97239.59
2019-04-28T00:48:36.704Z,97233.92
2019-04-28T00:53:31.386Z,97236.55
2019-04-28T00:58:25.953Z,97235.55
2019-04-28T01:03:21.490Z,97235.41
2019-04-28T01:08:16.947Z,97241.99
2019-04-28T01:13:11.708Z,97233.45
2019-04-28T01:18:07.965Z,97220.55
2019-04-28T01:23:02.620Z,97206.73
2019-04-28T01:27:57.211Z,97218.80
2019-04-28T01:33:02.159Z,97219.53
2019-04-28T01:37:56.733Z,97225.47
2019-04-28T01:42:51.341Z,97215.77
2019-04-28T01:47:45.935Z,97210.44
2019-04-28T01:52:40.526Z,97215.89
2019-04-28T01:57:35.172Z,97208.95
2019-04-28T02:02:30.202Z,97208.34
2019-04-28T02:07:25.379Z,97205.92
2019-04-28T02:12:20.421Z,97202.30
2019-04-28T02:17:15.216Z,97185.07
2019-04-28T02:22:23.379Z,97180.80
2019-04-28T02:27:18.019Z,97178.12
2019-04-28T02:32:13.494Z,97188.13
2019-04-28T02:37:10.978Z,97184.89
2019-04-28T02:42:04.501Z,97188.55
2019-04-28T02:47:00.767Z,97186.81
2019-04-28T02:52:03.227Z,97191.31
2019-04-28T02:57:01.064Z,97185.88
2019-04-28T03:01:54.372Z,97178.62
2019-04-28T03:06:51.625Z,97166.11
2019-04-28T03:11:45.775Z,97158.19
2019-04-28T03:16:41.082Z,97167.53
2019-04-28T03:21:35.982Z,97159.41
2019-04-28T03:26:50.654Z,97168.41
2019-04-28T03:32:16.611Z,97160.23
2019-04-28T03:36:52.652Z,97163.75
2019-04-28T03:41:47.264Z,97162.93
2019-04-28T03:46:43.487Z,97160.84
2019-04-28T03:51:40.581Z,97157.69
2019-04-28T03:56:34.385Z,97148.88
2019-04-28T04:01:30.521Z,97139.22
2019-04-28T04:06:25.324Z,97138.23
2019-04-28T04:11:37.954Z,97124.53
2019-04-28T04:16:34.191Z,97120.79
2019-04-28T04:21:31.056Z,97120.39
2019-04-28T04:26:25.084Z,97125.06
2019-04-28T04:31:20.096Z,97115.48
2019-04-28T04:36:14.943Z,97100.05
2019-04-28T04:41:11.204Z,97102.89
2019-04-28T04:46:22.096Z,97095.84
2019-04-28T04:51:15.974Z,97088.67
2019-04-28T04:56:10.784Z,97084.81
2019-04-28T05:01:16.076Z,97068.83
2019-04-28T05:06:29.795Z,97059.37
2019-04-28T05:11:24.744Z,97055.14
2019-04-28T05:16:19.806Z,97053.55
2019-04-28T05:21:14.616Z,97058.37
2019-04-28T05:26:11.347Z,97065.19
2019-04-28T05:31:05.543Z,97068.62
2019-04-28T05:36:02.988Z,97078.21
2019-04-28T05:40:56.452Z,97079.60
2019-04-28T05:45:51.060Z,97081.85
2019-04-28T05:50:47.264Z,97083.23
2019-04-28T05:55:55.501Z,97099.59
2019-04-28T06:00:52.518Z,97110.41
2019-04-28T06:05:47.128Z,97113.16
2019-04-28T06:10:41.703Z,97118.24
2019-04-28T06:15:36.980Z,97132.55
2019-04-28T06:20:31.546Z,97131.71
2019-04-28T06:25:26.153Z,97133.77
2019-04-28T06:30:20.863Z,97137.03
2019-04-28T06:35:15.451Z,97142.79
2019-04-28T06:40:10.536Z,97149.31
2019-04-28T06:45:07.936Z,97143.87
2019-04-28T06:50:02.587Z,97154.77
2019-04-28T06:54:57.177Z,97160.18
2019-04-28T06:59:51.766Z,97166.30
2019-04-28T07:04:46.354Z,97174.81
2019-04-28T07:09:40.920Z,97174.56
2019-04-28T07:14:35.518Z,97179.73
2019-04-28T07:19:30.091Z,97185.26
2019-04-28T07:24:24.822Z,97183.84
2019-04-28T07:29:19.402Z,97181.23
2019-04-28T07:34:14.212Z,97191.13
2019-04-28T07:39:08.915Z,97192.45
2019-04-28T07:44:03.650Z,97189.89
2019-04-28T07:48:58.225Z,97189.22
2019-04-28T07:54:06.719Z,97192.16
2019-04-28T07:59:01.356Z,97195.40
2019-04-28T08:03:57.546Z,97190.92
2019-04-28T08:08:52.192Z,97198.45
2019-04-28T08:13:46.855Z,97192.84
2019-04-28T08:18:41.565Z,97197.34
2019-04-28T08:23:46.576Z,97204.39
2019-04-28T08:28:32.457Z,97205.13
2019-04-28T08:33:37.403Z,97212.72
2019-04-28T08:38:31.974Z,97206.19
2019-04-28T08:43:26.594Z,97199.59
2019-04-28T08:48:21.249Z,97200.75
2019-04-28T08:53:15.851Z,97201.67
2019-04-28T08:58:10.425Z,97197.25
2019-04-28T09:03:05.151Z,97203.71
2019-04-28T09:07:59.864Z,97208.83
2019-04-28T09:12:54.491Z,97207.23
2019-04-28T09:17:49.078Z,97209.03
2019-04-28T09:22:43.684Z,97217.17
2019-04-28T09:27:38.286Z,97213.53
2019-04-28T09:32:33.014Z,97214.67
2019-04-28T09:37:28.271Z,97215.12
2019-04-28T09:42:31.427Z,97216.27
2019-04-28T09:47:26.009Z,97213.05
2019-04-28T09:52:20.597Z,97216.31
2019-04-28T09:57:15.172Z,97213.41
2019-04-28T10:02:09.840Z,97212.80
2019-04-28T10:07:04.563Z,97203.09
2019-04-28T10:11:59.169Z,97195.16
2019-04-28T10:16:53.749Z,97190.16
2019-04-28T10:21:48.345Z,97186.27
2019-04-28T10:26:42.937Z,97172.14
2019-04-28T10:31:37.601Z,97163.22
2019-04-28T10:36:33.836Z,97164.82
2019-04-28T10:41:33.021Z,97162.49
2019-04-28T10:46:27.691Z,97158.76
2019-04-28T10:51:22.333Z,97146.76
2019-04-28T10:56:16.951Z,97142.41
2019-04-28T11:01:11.531Z,97137.25
2019-04-28T11:06:06.305Z,97135.50
2019-04-28T11:11:02.524Z,97134.50
2019-04-28T11:15:57.121Z,97122.11
2019-04-28T11:20:51.701Z,97125.83
2019-04-28T11:25:46.412Z,97130.50
2019-04-28T11:30:41.060Z,97127.59
2019-04-28T11:35:37.763Z,97127.77
2019-04-28T11:40:32.345Z,97129.00
2019-04-28T11:45:27.372Z,97121.66
2019-04-28T11:50:22.114Z,97117.56
2019-04-28T11:55:17.045Z,97111.45
2019-04-28T12:00:26.682Z,97103.83
2019-04-28T12:05:34.010Z,97107.70
2019-04-28T12:10:32.714Z,97105.97
2019-04-28T12:15:45.202Z,97114.06
2019-04-28T12:20:41.404Z,97101.88
2019-04-28T12:25:36.202Z,97100.93
2019-04-28T12:30:30.779Z,97097.58
2019-04-28T12:35:25.507Z,97090.37
2019-04-28T12:40:22.579Z,97071.74
2019-04-28T12:45:17.974Z,97077.84
2019-04-28T12:50:27.310Z,97079.69
2019-04-28T12:55:21.961Z,97074.96
2019-04-28T13:00:34.505Z,97066.19
2019-04-28T13:05:30.457Z,97064.78
2019-04-28T13:10:25.115Z,97059.98
2019-04-28T13:15:19.711Z,97054.76
2019-04-28T13:20:15.045Z,97049.22
2019-04-28T13:25:10.415Z,97065.97
2019-04-28T13:30:07.375Z,97073.23
2019-04-28T13:35:02.037Z,97071.38
2019-04-28T13:40:01.196Z,97069.44
2019-04-28T13:45:00.299Z,97062.16
2019-04-28T13:49:56.624Z,97067.70
2019-04-28T13:54:52.849Z,97048.81
2019-04-28T13:59:49.098Z,97039.10
2019-04-28T14:05:01.385Z,97044.97
2019-04-28T14:09:56.007Z,97050.74
2019-04-28T14:14:50.635Z,97068.94
2019-04-28T14:19:45.201Z,97076.31
2019-04-28T14:24:39.796Z,97075.19
2019-04-28T14:29:34.371Z,97063.03
2019-04-28T14:34:28.995Z,97076.69
2019-04-28T14:39:23.590Z,97071.70
2019-04-28T14:44:18.185Z,97069.08
2019-04-28T14:49:12.840Z,97059.49
2019-04-28T14:54:07.491Z,97052.14
2019-04-28T14:59:04.097Z,97049.40
2019-04-28T15:04:02.973Z,97047.77
2019-04-28T15:09:02.140Z,97044.32
2019-04-28T15:13:56.785Z,97028.75
2019-04-28T15:18:51.414Z,97034.88
2019-04-28T15:23:46.063Z,97039.13
2019-04-28T15:28:40.708Z,97042.39
2019-04-28T15:33:35.350Z,97039.69
2019-04-28T15:38:29.968Z,97036.19
2019-04-28T15:43:24.619Z,97038.91
2019-04-28T15:48:19.291Z,97036.34
2019-04-28T15:53:14.034Z,97033.88
2019-04-28T15:58:26.126Z,97039.84
2019-04-28T16:03:20.818Z,97038.38
2019-04-28T16:08:15.659Z,97046.10
2019-04-28T16:13:10.470Z,97048.44
2019-04-28T16:18:05.344Z,97050.08
2019-04-28T16:23:00.073Z,97038.55
2019-04-28T16:27:54.795Z,97043.10
2019-04-28T16:32:49.414Z,97042.05
2019-04-28T16:37:44.146Z,97033.42
2019-04-28T16:42:42.308Z,97043.42
2019-04-28T16:47:36.918Z,97040.05
2019-04-28T16:52:31.600Z,97040.86
2019-04-28T16:57:28.057Z,97042.44
2019-04-28T17:02:24.653Z,97048.40
2019-04-28T17:07:19.571Z,97047.47
2019-04-28T17:12:14.423Z,97047.61
2019-04-28T17:17:09.340Z,97054.13
2019-04-28T17:22:04.326Z,97055.36
2019-04-28T17:26:59.165Z,97065.76
2019-04-28T17:31:53.909Z,97067.14
2019-04-28T17:36:48.725Z,97066.03
2019-04-28T17:41:43.682Z,97066.35
2019-04-28T17:46:38.580Z,97065.28
2019-04-28T17:51:33.544Z,97067.36
2019-04-28T17:56:28.373Z,97072.66
2019-04-28T18:01:41.010Z,97073.13
2019-04-28T18:06:37.550Z,97070.94
2019-04-28T18:11:32.565Z,97088.13
2019-04-28T18:16:44.983Z,97086.13
2019-04-28T18:21:39.971Z,97092.98
2019-04-28T18:26:34.862Z,97095.77
2019-04-28T18:31:36.920Z,97111.67
2019-04-28T18:36:40.444Z,97112.27
2019-04-28T18:41:46.176Z,97122.97
2019-04-28T18:46:41.096Z,97134.64
2019-04-28T18:51:35.995Z,97144.79
2019-04-28T18:56:30.886Z,97151.55
2019-04-28T19:01:37.289Z,97161.60
2019-04-28T19:06:32.270Z,97162.41
2019-04-28T19:11:37.531Z,97178.37
2019-04-28T19:16:39.688Z,97180.98
2019-04-28T19:21:34.603Z,97182.91
2019-04-28T19:26:29.500Z,97187.23
2019-04-28T19:31:24.430Z,97197.78
2019-04-28T19:36:19.317Z,97194.97
2019-04-28T19:41:14.224Z,97199.59
2019-04-28T19:46:10.785Z,97198.98
2019-04-28T19:51:05.770Z,97214.05
2019-04-28T19:56:02.300Z,97204.19
2019-04-28T20:01:01.754Z,97211.31
2019-04-28T20:06:05.405Z,97219.38
2019-04-28T20:11:00.144Z,97224.38
2019-04-28T20:15:54.925Z,97223.27
2019-04-28T20:20:49.662Z,97223.65
2019-04-28T20:25:44.355Z,97232.41
2019-04-28T20:30:38.932Z,97237.05
2019-04-28T20:35:35.155Z,97240.97
2019-04-28T20:40:37.072Z,97235.13
2019-04-28T20:45:31.741Z,97237.42
2019-04-28T20:50:26.326Z,97244.05
2019-04-28T20:55:20.918Z,97242.64
2019-04-28T21:00:16.201Z,97240.82
2019-04-28T21:05:10.931Z,97241.75
2019-04-28T21:10:06.758Z,97235.91
2019-04-28T21:15:01.447Z,97238.27
2019-04-28T21:19:56.026Z,97231.09
2019-04-28T21:24:50.645Z,97231.97
2019-04-28T21:29:45.220Z,97228.19
2019-04-28T21:34:39.803Z,97224.08
2019-04-28T21:39:34.374Z,97218.33
2019-04-28T21:44:30.602Z,97215.50
2019-04-28T21:49:32.784Z,97224.63
2019-04-28T21:54:27.362Z,97215.09
2019-04-28T21:59:21.947Z,97213.77
2019-04-28T22:04:16.615Z,97223.32
2019-04-28T22:09:11.323Z,97228.28
2019-04-28T22:14:05.977Z,97227.22
2019-04-28T22:19:00.564Z,97226.78
2019-04-28T22:24:03.843Z,97228.96
2019-04-28T22:28:58.491Z,97236.88
2019-04-28T22:33:53.063Z,97229.54
2019-04-28T22:38:47.653Z,97227.07
2019-04-28T22:43:42.245Z,97227.05
2019-04-28T22:48:36.823Z,97228.43
2019-04-28T22:53:33.059Z,97224.15
2019-04-28T22:58:29.287Z,97229.36
2019-04-28T23:03:25.530Z,97233.64
2019-04-28T23:08:20.097Z,97234.77
2019-04-28T23:13:14.679Z,97229.13
2019-04-28T23:18:09.547Z,97232.22
2019-04-28T23:23:05.832Z,97231.88
2019-04-28T23:28:00.416Z,97230.51
2019-04-28T23:32:54.995Z,97224.22
2019-04-28T23:37:49.586Z,97225.05
2019-04-28T23:42:45.801Z,97220.55
2019-04-28T23:47:40.390Z,97214.80
2019-04-28T23:52:39.368Z,97213.60
2019-04-28T23:57:33.935Z,97212.72
